createdAt,value
2022-08-03T00:00:15.548Z,2.60
2022-08-03T00:03:02.628Z,3.13
2022-08-03T00:06:04.052Z,3.67
2022-08-03T00:08:51.878Z,2.83
2022-08-03T00:11:39.262Z,3.50
2022-08-03T00:14:26.237Z,3.17
2022-08-03T00:17:13.159Z,3.17
2022-08-03T00:20:00.167Z,3.30
2022-08-03T00:22:47.137Z,3.92
2022-08-03T00:25:35.361Z,3.60
2022-08-03T00:28:22.429Z,5.45
2022-08-03T00:31:13.419Z,4.30
2022-08-03T00:34:03.589Z,3.08
2022-08-03T00:36:51.188Z,4.05
2022-08-03T00:39:38.183Z,2.83
2022-08-03T00:42:28.568Z,4.57
2022-08-03T00:45:15.831Z,3.30
2022-08-03T00:48:03.560Z,4.97
2022-08-03T00:50:50.672Z,4.90
2022-08-03T00:53:41.287Z,3.65
2022-08-03T00:56:28.233Z,3.88
2022-08-03T00:59:16.145Z,5.00
2022-08-03T01:02:03.122Z,4.65
2022-08-03T01:04:50.031Z,3.20
2022-08-03T01:07:46.044Z,3.28
2022-08-03T01:10:48.936Z,3.58
2022-08-03T01:14:04.163Z,4.13
2022-08-03T01:17:04.058Z,4.93
2022-08-03T01:20:02.620Z,3.97
2022-08-03T01:23:11.688Z,5.00
2022-08-03T01:26:07.493Z,3.67
2022-08-03T01:29:20.692Z,5.35
2022-08-03T01:32:58.668Z,4.28
2022-08-03T01:35:39.182Z,3.53
2022-08-03T01:38:29.397Z,4.00
2022-08-03T01:41:21.054Z,4.00
2022-08-03T01:44:30.155Z,3.70
2022-08-03T01:47:20.410Z,4.90
2022-08-03T01:50:09.168Z,5.00
2022-08-03T01:52:57.806Z,3.72
2022-08-03T01:55:47.270Z,3.95
2022-08-03T01:58:36.303Z,3.33
2022-08-03T02:01:25.398Z,6.80
2022-08-03T02:04:32.910Z,3.80
2022-08-03T02:07:20.561Z,3.92
2022-08-03T02:10:08.684Z,3.80
2022-08-03T02:13:01.181Z,3.92
2022-08-03T02:15:49.095Z,5.25
2022-08-03T02:18:39.531Z,4.85
2022-08-03T02:21:56.767Z,4.80
2022-08-03T02:24:36.924Z,5.72
2022-08-03T02:27:26.752Z,6.97
2022-08-03T02:30:14.362Z,5.43
2022-08-03T02:33:02.303Z,4.45
2022-08-03T02:35:50.407Z,6.50
2022-08-03T02:38:41.092Z,4.60
2022-08-03T02:41:32.829Z,3.97
2022-08-03T02:44:26.475Z,4.15
2022-08-03T02:47:15.495Z,4.32
2022-08-03T02:50:04.349Z,5.88
2022-08-03T02:52:52.908Z,3.70
2022-08-03T02:55:45.877Z,5.15
2022-08-03T02:58:34.233Z,6.75
2022-08-03T03:01:24.321Z,5.32
2022-08-03T03:04:12.016Z,4.75
2022-08-03T03:07:01.877Z,4.90
2022-08-03T03:09:52.269Z,6.00
2022-08-03T03:12:41.801Z,3.50
2022-08-03T03:15:31.619Z,3.85
2022-08-03T03:18:22.605Z,3.92
2022-08-03T03:21:10.849Z,6.38
2022-08-03T03:23:59.280Z,3.88
2022-08-03T03:26:46.646Z,4.00
2022-08-03T03:29:39.182Z,4.82
2022-08-03T03:32:27.976Z,6.03
2022-08-03T03:35:16.572Z,6.43
2022-08-03T03:38:03.634Z,4.65
2022-08-03T03:40:50.659Z,5.70
2022-08-03T03:43:37.750Z,4.55
2022-08-03T03:46:25.067Z,7.47
2022-08-03T03:49:12.162Z,5.88
2022-08-03T03:51:59.202Z,5.57
2022-08-03T03:54:46.151Z,5.18
2022-08-03T03:57:34.496Z,4.60
2022-08-03T04:00:21.683Z,5.68
2022-08-03T04:03:10.828Z,6.70
2022-08-03T04:06:17.451Z,6.25
2022-08-03T04:09:22.891Z,9.30
2022-08-03T04:12:10.110Z,5.03
2022-08-03T04:14:59.224Z,4.97
2022-08-03T04:17:47.120Z,5.40
2022-08-03T04:20:36.934Z,4.82
2022-08-03T04:23:26.883Z,4.78
2022-08-03T04:26:16.195Z,4.40
2022-08-03T04:29:05.839Z,5.18
2022-08-03T04:31:54.567Z,5.07
2022-08-03T04:34:42.041Z,5.78
2022-08-03T04:37:48.730Z,4.75
2022-08-03T04:40:39.496Z,4.97
2022-08-03T04:43:27.764Z,7.00
2022-08-03T04:46:15.526Z,5.18
2022-08-03T04:49:03.274Z,5.72
2022-08-03T04:51:50.755Z,5.13
2022-08-03T04:54:42.621Z,6.28
2022-08-03T04:57:35.849Z,5.68
2022-08-03T05:00:23.363Z,5.75
2022-08-03T05:03:23.640Z,4.72
2022-08-03T05:06:11.770Z,4.82
2022-08-03T05:08:58.772Z,4.60
2022-08-03T05:11:46.071Z,7.35
2022-08-03T05:14:33.934Z,5.03
2022-08-03T05:17:20.918Z,4.50
2022-08-03T05:20:08.691Z,4.90
2022-08-03T05:22:55.634Z,6.63
2022-08-03T05:25:49.761Z,4.63
2022-08-03T05:28:37.436Z,5.47
2022-08-03T05:31:24.388Z,5.28
2022-08-03T05:34:11.331Z,4.57
2022-08-03T05:36:58.319Z,7.00
2022-08-03T05:39:45.328Z,5.38
2022-08-03T05:42:32.339Z,4.80
2022-08-03T05:45:19.857Z,5.25
2022-08-03T05:48:06.805Z,4.40
2022-08-03T05:50:53.821Z,5.43
2022-08-03T05:53:42.515Z,4.55
2022-08-03T05:56:29.510Z,4.88
2022-08-03T05:59:37.606Z,4.47
2022-08-03T06:02:23.666Z,4.35
2022-08-03T06:05:11.009Z,4.57
2022-08-03T06:07:58.052Z,6.20
2022-08-03T06:10:45.020Z,5.28
2022-08-03T06:13:32.224Z,5.47
2022-08-03T06:16:19.184Z,4.15
2022-08-03T06:19:06.256Z,5.13
2022-08-03T06:21:53.392Z,5.68
2022-08-03T06:24:40.393Z,7.88
2022-08-03T06:27:40.440Z,6.03
2022-08-03T06:30:27.536Z,4.72
2022-08-03T06:33:15.056Z,4.53
2022-08-03T06:36:02.012Z,4.82
2022-08-03T06:38:49.117Z,3.92
2022-08-03T06:41:37.518Z,4.72
2022-08-03T06:44:25.378Z,4.30
2022-08-03T06:47:12.312Z,4.80
2022-08-03T06:50:16.438Z,4.18
2022-08-03T06:53:05.801Z,5.13
2022-08-03T06:55:54.829Z,3.40
2022-08-03T06:58:42.161Z,3.97
2022-08-03T07:01:29.138Z,3.50
2022-08-03T07:04:16.109Z,3.25
2022-08-03T07:07:03.201Z,4.75
2022-08-03T07:09:56.933Z,3.88
2022-08-03T07:12:55.801Z,3.45
2022-08-03T07:15:55.430Z,2.97
2022-08-03T07:18:43.242Z,5.93
2022-08-03T07:21:30.205Z,3.13
2022-08-03T07:24:17.151Z,5.05
2022-08-03T07:27:04.324Z,2.70
2022-08-03T07:29:51.290Z,2.95
2022-08-03T07:32:50.497Z,3.45
2022-08-03T07:35:38.123Z,4.32
2022-08-03T07:38:25.084Z,2.55
2022-08-03T07:41:12.129Z,3.03
2022-08-03T07:43:59.107Z,3.05
2022-08-03T07:46:48.588Z,3.03
2022-08-03T07:49:39.951Z,4.97
2022-08-03T07:52:45.445Z,3.38
2022-08-03T07:55:32.427Z,4.63
2022-08-03T07:58:24.024Z,4.88
2022-08-03T08:01:11.472Z,6.22
2022-08-03T08:04:02.201Z,5.80
2022-08-03T08:06:49.185Z,2.80
2022-08-03T08:09:37.036Z,3.50
2022-08-03T08:12:23.980Z,3.22
2022-08-03T08:15:11.049Z,4.78
2022-08-03T08:18:00.086Z,3.40
2022-08-03T08:20:47.244Z,3.08
2022-08-03T08:23:41.884Z,3.53
2022-08-03T08:26:30.544Z,3.97
2022-08-03T08:29:17.510Z,3.00
2022-08-03T08:32:04.809Z,3.22
2022-08-03T08:34:52.142Z,7.28
2022-08-03T08:37:40.515Z,3.03
2022-08-03T08:40:28.262Z,3.17
2022-08-03T08:43:15.265Z,6.00
2022-08-03T08:46:03.353Z,4.53
2022-08-03T08:48:51.369Z,2.55
2022-08-03T08:51:54.822Z,5.65
2022-08-03T08:54:47.718Z,5.10
2022-08-03T08:57:43.547Z,5.32
2022-08-03T09:00:31.226Z,3.28
2022-08-03T09:03:29.150Z,6.97
2022-08-03T09:06:17.497Z,5.20
2022-08-03T09:09:07.018Z,3.20
2022-08-03T09:12:01.217Z,4.10
2022-08-03T09:15:23.367Z,4.75
2022-08-03T09:18:10.622Z,3.08
2022-08-03T09:21:30.138Z,3.33
2022-08-03T09:24:40.790Z,7.45
2022-08-03T09:27:29.136Z,2.40
2022-08-03T09:30:33.608Z,3.78
2022-08-03T09:33:22.095Z,5.90
2022-08-03T09:36:09.053Z,5.72
2022-08-03T09:39:06.151Z,7.93
2022-08-03T09:42:06.862Z,3.50
2022-08-03T09:44:53.974Z,2.72
2022-08-03T09:47:45.040Z,4.53
2022-08-03T09:50:58.459Z,6.88
2022-08-03T09:54:03.860Z,4.22
2022-08-03T09:56:50.890Z,4.53
2022-08-03T09:59:39.143Z,4.88
2022-08-03T10:02:28.371Z,2.60
2022-08-03T10:05:17.712Z,4.20
2022-08-03T10:08:15.431Z,3.80
2022-08-03T10:11:02.428Z,5.50
2022-08-03T10:13:49.672Z,5.35
2022-08-03T10:16:40.523Z,4.57
2022-08-03T10:19:27.600Z,3.08
2022-08-03T10:22:18.761Z,4.03
2022-08-03T10:25:16.189Z,4.35
2022-08-03T10:28:04.458Z,5.72
2022-08-03T10:30:54.830Z,4.45
2022-08-03T10:33:51.253Z,2.85
2022-08-03T10:36:41.363Z,3.20
2022-08-03T10:39:30.660Z,3.38
2022-08-03T10:42:17.707Z,3.38
2022-08-03T10:45:09.520Z,5.10
2022-08-03T10:47:57.822Z,6.00
2022-08-03T10:50:45.907Z,8.43
2022-08-03T10:53:42.333Z,7.15
2022-08-03T10:56:52.675Z,4.38
2022-08-03T10:59:46.610Z,3.63
2022-08-03T11:03:06.592Z,3.90
2022-08-03T11:05:56.940Z,4.72
2022-08-03T11:08:44.097Z,3.05
2022-08-03T11:11:31.296Z,3.03
2022-08-03T11:14:20.575Z,4.72
2022-08-03T11:17:14.040Z,6.05
2022-08-03T11:20:01.818Z,6.25
2022-08-03T11:22:54.440Z,3.95
2022-08-03T11:26:10.668Z,2.67
2022-08-03T11:29:27.383Z,2.63
2022-08-03T11:32:40.293Z,4.88
2022-08-03T11:35:43.714Z,5.03
2022-08-03T11:38:30.715Z,3.63
2022-08-03T11:41:42.716Z,4.78
2022-08-03T11:44:41.448Z,6.70
2022-08-03T11:47:37.412Z,4.28
2022-08-03T11:50:37.972Z,3.28
2022-08-03T11:53:25.015Z,3.42
2022-08-03T11:56:12.646Z,5.57
2022-08-03T11:59:20.255Z,4.97
2022-08-03T12:02:12.232Z,6.30
2022-08-03T12:05:03.110Z,5.22
2022-08-03T12:08:04.049Z,8.65
2022-08-03T12:10:53.727Z,5.15
2022-08-03T12:14:08.890Z,9.18
2022-08-03T12:16:56.642Z,4.45
2022-08-03T12:19:44.432Z,4.63
2022-08-03T12:22:39.852Z,6.82
2022-08-03T12:25:39.056Z,6.65
2022-08-03T12:28:35.977Z,3.95
2022-08-03T12:31:25.068Z,5.53
2022-08-03T12:34:12.297Z,5.22
2022-08-03T12:37:00.061Z,4.65
2022-08-03T12:40:02.107Z,4.25
2022-08-03T12:42:51.273Z,2.67
2022-08-03T12:45:38.314Z,3.15
2022-08-03T12:48:25.270Z,4.10
2022-08-03T12:51:14.885Z,5.47
2022-08-03T12:54:03.215Z,6.55
2022-08-03T12:57:05.556Z,4.47
2022-08-03T12:59:55.853Z,3.80
2022-08-03T13:02:46.358Z,4.30
2022-08-03T13:05:53.970Z,3.47
2022-08-03T13:08:41.359Z,4.90
2022-08-03T13:11:50.555Z,3.60
2022-08-03T13:14:36.231Z,3.78
2022-08-03T13:17:24.008Z,3.67
2022-08-03T13:20:11.463Z,4.53
2022-08-03T13:23:00.922Z,3.17
2022-08-03T13:25:55.135Z,6.28
2022-08-03T13:28:43.119Z,4.97
2022-08-03T13:31:30.070Z,4.07
2022-08-03T13:34:22.275Z,3.70
2022-08-03T13:37:12.026Z,3.20
2022-08-03T13:40:02.505Z,4.18
2022-08-03T13:42:50.354Z,5.18
2022-08-03T13:45:37.340Z,6.97
2022-08-03T13:48:36.124Z,3.45
2022-08-03T13:51:24.713Z,5.63
2022-08-03T13:54:11.682Z,5.35
2022-08-03T13:58:01.277Z,3.35
2022-08-03T14:00:06.527Z,2.58
2022-08-03T14:02:55.343Z,3.35
2022-08-03T14:05:45.464Z,3.83
2022-08-03T14:08:32.484Z,4.00
2022-08-03T14:11:19.443Z,3.85
2022-08-03T14:14:06.457Z,4.93
2022-08-03T14:16:53.452Z,5.78
2022-08-03T14:19:53.280Z,3.88
2022-08-03T14:22:41.074Z,4.75
2022-08-03T14:25:28.065Z,4.38
2022-08-03T14:28:16.027Z,10.20
2022-08-03T14:31:03.601Z,3.63
2022-08-03T14:33:50.571Z,4.85
2022-08-03T14:36:37.779Z,4.97
2022-08-03T14:39:25.411Z,5.28
2022-08-03T14:42:12.410Z,5.05
2022-08-03T14:45:03.581Z,4.95
2022-08-03T14:50:24.364Z,5.32
2022-08-03T14:50:59.064Z,4.90
2022-08-03T14:53:46.648Z,6.07
2022-08-03T14:56:33.699Z,4.50
2022-08-03T14:59:20.762Z,4.65
2022-08-03T15:02:12.805Z,3.95
2022-08-03T15:05:05.953Z,3.65
2022-08-03T15:07:52.984Z,3.58
2022-08-03T15:10:44.369Z,3.35
2022-08-03T15:13:31.951Z,3.42
2022-08-03T15:16:18.921Z,6.00
2022-08-03T15:20:01.594Z,8.88
2022-08-03T15:22:15.421Z,5.13
2022-08-03T15:26:04.010Z,2.88
2022-08-03T15:28:13.627Z,5.95
2022-08-03T15:31:01.275Z,3.97
2022-08-03T15:33:48.313Z,5.32
2022-08-03T15:36:35.272Z,2.47
2022-08-03T15:39:22.277Z,5.20
2022-08-03T15:42:09.259Z,5.32
2022-08-03T15:44:56.266Z,5.40
2022-08-03T15:47:43.214Z,6.13
2022-08-03T15:50:30.181Z,2.55
2022-08-03T15:53:17.460Z,3.83
2022-08-03T15:56:11.378Z,4.75
2022-08-03T15:59:12.610Z,5.70
2022-08-03T16:02:00.908Z,3.33
2022-08-03T16:04:47.995Z,5.00
2022-08-03T16:08:03.459Z,5.43
2022-08-03T16:10:51.176Z,5.80
2022-08-03T16:14:13.873Z,5.10
2022-08-03T16:16:45.911Z,4.32
2022-08-03T16:19:33.806Z,6.10
2022-08-03T16:22:23.796Z,5.90
2022-08-03T16:25:13.994Z,4.55
2022-08-03T16:28:07.680Z,4.68
2022-08-03T16:31:00.145Z,5.63
2022-08-03T16:33:47.100Z,3.30
2022-08-03T16:36:34.952Z,10.63
2022-08-03T16:39:22.146Z,10.15
2022-08-03T16:42:09.227Z,12.50
2022-08-03T16:44:56.383Z,5.85
2022-08-03T16:47:43.435Z,6.25
2022-08-03T16:50:30.389Z,8.73
2022-08-03T16:53:17.629Z,4.80
2022-08-03T16:56:20.446Z,7.80
2022-08-03T16:59:07.605Z,4.20
2022-08-03T17:01:55.394Z,5.47
2022-08-03T17:04:42.888Z,5.03
2022-08-03T17:07:31.584Z,4.25
2022-08-03T17:10:21.915Z,7.35
2022-08-03T17:13:21.683Z,6.88
2022-08-03T17:16:10.391Z,4.90
2022-08-03T17:19:02.464Z,5.18
2022-08-03T17:22:04.294Z,6.18
2022-08-03T17:24:53.706Z,8.38
2022-08-03T17:28:49.607Z,6.70
2022-08-03T17:31:09.704Z,7.85
2022-08-03T17:34:10.776Z,7.25
2022-08-03T17:37:06.314Z,7.75
2022-08-03T17:39:59.500Z,4.35
2022-08-03T17:42:50.472Z,4.43
2022-08-03T17:45:52.002Z,4.00
2022-08-03T17:48:41.132Z,7.78
2022-08-03T17:51:46.488Z,3.45
2022-08-03T17:55:56.992Z,5.47
2022-08-03T17:58:15.165Z,7.13
2022-08-03T18:02:00.375Z,9.88
2022-08-03T18:04:32.991Z,5.13
2022-08-03T18:07:22.901Z,4.63
2022-08-03T18:10:15.411Z,9.73
2022-08-03T18:13:10.952Z,4.47
2022-08-03T18:16:03.346Z,8.43
2022-08-03T18:18:54.676Z,4.57
2022-08-03T18:22:02.859Z,5.68
2022-08-03T18:24:50.168Z,5.45
2022-08-03T18:27:42.716Z,4.20
2022-08-03T18:30:33.777Z,3.40
2022-08-03T18:34:18.572Z,4.57
2022-08-03T18:36:48.896Z,3.03
2022-08-03T18:39:49.346Z,7.97
2022-08-03T18:42:36.710Z,7.65
2022-08-03T18:45:57.552Z,6.93
2022-08-03T18:48:49.026Z,5.82
2022-08-03T18:51:43.182Z,2.67
2022-08-03T18:54:51.070Z,6.10
2022-08-03T18:57:55.404Z,5.60
2022-08-03T19:00:54.744Z,5.68
2022-08-03T19:03:48.724Z,5.70
2022-08-03T19:06:42.536Z,4.10
2022-08-03T19:09:47.485Z,5.55
2022-08-03T19:12:50.344Z,4.75
2022-08-03T19:15:41.435Z,7.05
2022-08-03T19:18:40.559Z,6.60
2022-08-03T19:21:30.717Z,5.05
2022-08-03T19:24:23.247Z,4.30
2022-08-03T19:27:10.849Z,11.63
2022-08-03T19:30:02.878Z,5.90
2022-08-03T19:32:51.857Z,15.23
2022-08-03T19:35:54.921Z,9.75
2022-08-03T19:38:44.439Z,6.90
2022-08-03T19:41:41.882Z,8.50
2022-08-03T19:44:31.772Z,11.95
2022-08-03T19:47:35.316Z,16.83
2022-08-03T19:50:23.833Z,13.98
2022-08-03T19:53:13.001Z,11.27
2022-08-03T19:56:05.046Z,12.15
2022-08-03T19:58:55.371Z,15.52
2022-08-03T20:01:50.898Z,18.65
2022-08-03T20:04:38.465Z,19.15
2022-08-03T20:07:26.744Z,28.73
2022-08-03T20:10:14.799Z,24.95
2022-08-03T20:13:03.403Z,19.85
2022-08-03T20:15:53.375Z,34.08
2022-08-03T20:18:40.609Z,53.72
2022-08-03T20:21:32.011Z,44.85
2022-08-03T20:24:34.223Z,31.52
2022-08-03T20:27:24.618Z,27.35
2022-08-03T20:30:17.738Z,52.83
2022-08-03T20:33:18.817Z,17.13
2022-08-03T20:36:06.303Z,10.52
2022-08-03T20:38:57.659Z,17.92
2022-08-03T20:41:45.299Z,12.45
2022-08-03T20:44:32.380Z,5.30
2022-08-03T20:47:23.726Z,11.02
2022-08-03T20:50:11.773Z,8.60
2022-08-03T20:52:59.253Z,10.55
2022-08-03T20:56:02.476Z,12.55
2022-08-03T21:01:57.625Z,11.00
2022-08-03T21:04:44.588Z,9.77
2022-08-03T21:08:05.464Z,16.20
2022-08-03T21:10:48.953Z,8.05
2022-08-03T21:13:12.684Z,9.90
2022-08-03T21:13:42.343Z,9.00
2022-08-03T21:16:32.393Z,14.38
2022-08-03T21:19:22.311Z,9.63
2022-08-03T21:22:10.365Z,9.95
2022-08-03T21:24:59.411Z,7.80
2022-08-03T21:27:48.943Z,8.07
2022-08-03T21:30:37.362Z,5.22
2022-08-03T21:33:27.969Z,5.15
2022-08-03T21:36:15.358Z,10.70
2022-08-03T21:39:05.760Z,6.45
2022-08-03T21:41:52.797Z,5.55
2022-08-03T21:44:40.428Z,7.20
2022-08-03T21:47:27.501Z,5.30
2022-08-03T21:50:15.022Z,9.43
2022-08-03T21:53:03.341Z,5.18
2022-08-03T21:56:11.393Z,8.80
2022-08-03T21:59:06.176Z,7.40
2022-08-03T22:01:55.373Z,6.53
2022-08-03T22:04:55.038Z,8.15
2022-08-03T22:07:43.585Z,10.65
2022-08-03T22:10:30.625Z,7.75
2022-08-03T22:13:43.072Z,6.97
2022-08-03T22:16:25.712Z,7.57
2022-08-03T22:19:12.733Z,7.05
2022-08-03T22:22:00.266Z,6.28
2022-08-03T22:24:48.789Z,8.13
2022-08-03T22:27:40.062Z,8.18
2022-08-03T22:30:27.167Z,5.97
2022-08-03T22:33:15.655Z,6.45
2022-08-03T22:36:04.723Z,7.38
2022-08-03T22:38:52.752Z,7.35
2022-08-03T22:41:39.840Z,7.50
2022-08-03T22:44:27.971Z,7.40
2022-08-03T22:47:15.732Z,8.07
2022-08-03T22:50:31.926Z,9.63
2022-08-03T22:53:21.698Z,8.20
2022-08-03T22:56:09.044Z,9.27
2022-08-03T22:58:56.060Z,7.15
2022-08-03T23:01:44.093Z,7.80
2022-08-03T23:04:32.600Z,6.63
2022-08-03T23:07:35.714Z,7.07
2022-08-03T23:10:24.823Z,8.30
2022-08-03T23:13:13.294Z,6.70
2022-08-03T23:16:00.958Z,6.20
2022-08-03T23:18:49.166Z,7.38
2022-08-03T23:21:53.254Z,5.47
2022-08-03T23:24:45.060Z,7.88
2022-08-03T23:27:33.313Z,9.35
2022-08-03T23:30:20.285Z,7.40
2022-08-03T23:33:18.661Z,7.82
2022-08-03T23:36:29.163Z,7.05
2022-08-03T23:39:16.643Z,9.45
2022-08-03T23:42:04.207Z,7.50
2022-08-03T23:44:56.262Z,5.63
2022-08-03T23:47:46.293Z,7.75
2022-08-03T23:50:44.371Z,6.68
2022-08-03T23:53:39.053Z,4.90
2022-08-03T23:56:50.573Z,6.55
2022-08-03T23:59:59.227Z,8.25
